createdAt,value
2019-04-16T00:00:35.415Z,99308.95
2019-04-16T00:03:02.981Z,99561.05
2019-04-16T00:05:31.773Z,99537.56
2019-04-16T00:08:00.818Z,99543.70
2019-04-16T00:10:29.528Z,99544.02
2019-04-16T00:13:04.276Z,99540.78
2019-04-16T00:15:31.716Z,99538.26
2019-04-16T00:17:59.083Z,99544.23
2019-04-16T00:20:26.120Z,99548.23
2019-04-16T00:22:55.112Z,99527.84
2019-04-16T00:25:22.887Z,99545.34
2019-04-16T00:27:50.414Z,99536.92
2019-04-16T00:30:17.885Z,99529.88
2019-04-16T00:32:45.482Z,99524.44
2019-04-16T00:35:15.395Z,99527.19
2019-04-16T00:37:41.942Z,99513.66
2019-04-16T00:40:08.915Z,99273.31
2019-04-16T00:42:35.928Z,99502.56
2019-04-16T00:45:03.736Z,99509.06
2019-04-16T00:47:31.586Z,99504.03
2019-04-16T00:49:59.646Z,99500.92
2019-04-16T00:52:27.397Z,99502.54
2019-04-16T00:54:54.541Z,99502.17
2019-04-16T00:57:21.566Z,99506.71
2019-04-16T00:59:49.328Z,99500.26
2019-04-16T01:02:16.594Z,99498.94
2019-04-16T01:04:43.506Z,99499.77
2019-04-16T01:07:10.446Z,99495.11
2019-04-16T01:09:38.222Z,99512.23
2019-04-16T01:12:05.342Z,99497.00
2019-04-16T01:14:32.934Z,99481.52
2019-04-16T01:17:04.078Z,99484.15
2019-04-16T01:19:29.593Z,99479.88
2019-04-16T01:21:57.583Z,99489.14
2019-04-16T01:24:24.435Z,99493.68
2019-04-16T01:26:52.176Z,99264.75
2019-04-16T01:29:19.058Z,99488.91
2019-04-16T01:32:04.583Z,99500.72
2019-04-16T01:34:39.665Z,99492.94
2019-04-16T01:37:08.587Z,99487.08
2019-04-16T01:39:40.902Z,99489.66
2019-04-16T01:42:07.868Z,99477.56
2019-04-16T01:44:34.854Z,99491.06
2019-04-16T01:47:04.285Z,99489.52
2019-04-16T01:49:31.020Z,99484.79
2019-04-16T01:51:57.972Z,99498.93
2019-04-16T01:54:25.988Z,99497.55
2019-04-16T01:56:52.845Z,99494.23
2019-04-16T01:59:19.726Z,99490.11
2019-04-16T02:01:46.594Z,99499.34
2019-04-16T02:04:13.671Z,99513.48
2019-04-16T02:06:40.664Z,99518.18
2019-04-16T02:09:16.078Z,99491.52
2019-04-16T02:11:38.827Z,99497.05
2019-04-16T02:14:07.707Z,99497.47
2019-04-16T02:16:34.667Z,99501.62
2019-04-16T02:19:03.688Z,99499.29
2019-04-16T02:21:31.545Z,99497.95
2019-04-16T02:23:59.380Z,99500.36
2019-04-16T02:26:26.475Z,99502.39
2019-04-16T02:28:53.275Z,99508.73
2019-04-16T02:31:21.026Z,99506.61
2019-04-16T02:33:48.734Z,99505.31
2019-04-16T02:36:16.176Z,99513.59
2019-04-16T02:38:52.389Z,99510.28
2019-04-16T02:41:12.750Z,99512.47
2019-04-16T02:43:40.860Z,99530.94
2019-04-16T02:46:09.111Z,99530.94
2019-04-16T02:48:36.842Z,99510.03
2019-04-16T02:51:08.730Z,99518.39
2019-04-16T02:53:40.383Z,99513.35
2019-04-16T02:56:26.267Z,99513.35
2019-04-16T02:59:09.999Z,99539.63
2019-04-16T03:01:45.097Z,99538.50
2019-04-16T03:04:14.588Z,99523.27
2019-04-16T03:06:41.889Z,99518.81
2019-04-16T03:09:09.944Z,99518.81
2019-04-16T03:11:37.378Z,99515.72
2019-04-16T03:14:04.970Z,99507.67
2019-04-16T03:16:46.307Z,99512.98
2019-04-16T03:19:19.063Z,99507.30
2019-04-16T03:21:44.544Z,99509.48
2019-04-16T03:24:11.972Z,99509.48
2019-04-16T03:26:39.308Z,99550.20
2019-04-16T03:29:06.997Z,99494.88
2019-04-16T03:31:34.644Z,99488.86
2019-04-16T03:34:02.518Z,99488.86
2019-04-16T03:36:30.475Z,99509.08
2019-04-16T03:38:58.642Z,99509.08
2019-04-16T03:41:26.617Z,99508.12
2019-04-16T03:43:54.325Z,99513.83
2019-04-16T03:46:21.355Z,99502.89
2019-04-16T03:48:48.879Z,99499.45
2019-04-16T03:51:15.953Z,99499.45
2019-04-16T03:53:46.440Z,99495.58
2019-04-16T03:56:12.833Z,99488.17
2019-04-16T03:58:40.523Z,99488.17
2019-04-16T04:01:07.509Z,99487.34
2019-04-16T04:03:34.592Z,99487.34
2019-04-16T04:06:03.518Z,99484.02
2019-04-16T04:08:31.345Z,99484.02
2019-04-16T04:10:58.946Z,99482.08
2019-04-16T04:13:25.730Z,99480.88
2019-04-16T04:15:55.016Z,99486.53
2019-04-16T04:18:22.719Z,99483.81
2019-04-16T04:20:50.932Z,99483.81
2019-04-16T04:23:18.182Z,99485.80
2019-04-16T04:25:45.071Z,99485.80
2019-04-16T04:28:11.854Z,99482.25
2019-04-16T04:30:39.138Z,99482.25
2019-04-16T04:33:08.638Z,99475.43
2019-04-16T04:35:34.935Z,99471.72
2019-04-16T04:38:04.132Z,99471.72
2019-04-16T04:40:43.883Z,99339.85
2019-04-16T04:43:01.630Z,99474.95
2019-04-16T04:45:29.419Z,99474.95
2019-04-16T04:47:56.580Z,99508.20
2019-04-16T04:50:23.569Z,99483.75
2019-04-16T04:52:50.907Z,99483.75
2019-04-16T04:55:18.542Z,99478.09
2019-04-16T04:57:46.427Z,99476.90
2019-04-16T05:00:13.447Z,99476.90
2019-04-16T05:02:43.681Z,99488.64
2019-04-16T05:05:25.570Z,99485.12
2019-04-16T05:07:52.674Z,99484.71
2019-04-16T05:10:20.111Z,99495.03
2019-04-16T05:12:47.360Z,99495.03
2019-04-16T05:15:14.906Z,99487.73
2019-04-16T05:17:42.086Z,99494.14
2019-04-16T05:20:09.237Z,99494.14
2019-04-16T05:22:36.429Z,99335.70
2019-04-16T05:25:04.369Z,99495.20
2019-04-16T05:27:31.332Z,99495.20
2019-04-16T05:29:58.665Z,99493.80
2019-04-16T05:32:32.976Z,99495.52
2019-04-16T05:34:55.212Z,99504.67
2019-04-16T05:37:22.710Z,99500.12
2019-04-16T05:39:50.093Z,99495.22
2019-04-16T05:42:17.032Z,99504.72
2019-04-16T05:44:45.418Z,99510.72
2019-04-16T05:47:16.761Z,99512.41
2019-04-16T05:49:42.483Z,99275.94
2019-04-16T05:52:09.374Z,99275.94
2019-04-16T05:54:54.372Z,99503.36
2019-04-16T05:57:26.511Z,99507.29
2019-04-16T05:59:52.464Z,99507.29
2019-04-16T06:02:39.987Z,99508.38
2019-04-16T06:05:07.639Z,99522.08
2019-04-16T06:07:37.787Z,99522.08
2019-04-16T06:10:07.370Z,99509.95
2019-04-16T06:12:39.604Z,99509.41
2019-04-16T06:15:26.482Z,99520.56
2019-04-16T06:18:12.245Z,99519.63
2019-04-16T06:20:44.048Z,99521.65
2019-04-16T06:23:13.195Z,99521.77
2019-04-16T06:25:42.147Z,99518.97
2019-04-16T06:28:11.290Z,99319.41
2019-04-16T06:30:46.261Z,99530.20
2019-04-16T06:33:18.164Z,99514.82
2019-04-16T06:35:56.392Z,99517.85
2019-04-16T06:38:28.503Z,99521.70
2019-04-16T06:41:04.082Z,99520.39
2019-04-16T06:43:45.334Z,99511.25
2019-04-16T06:46:19.690Z,99518.54
2019-04-16T06:48:50.808Z,99509.33
2019-04-16T06:51:37.479Z,99517.99
2019-04-16T06:54:06.191Z,99513.91
2019-04-16T06:56:51.205Z,99511.99
2019-04-16T06:59:26.609Z,99520.95
2019-04-16T07:02:02.844Z,99519.61
2019-04-16T07:04:31.900Z,99514.30
2019-04-16T07:07:21.583Z,99547.30
2019-04-16T07:09:50.351Z,99508.19
2019-04-16T07:12:19.165Z,99516.70
2019-04-16T07:14:48.521Z,99516.27
2019-04-16T07:17:17.863Z,99505.53
2019-04-16T07:19:44.562Z,99501.20
2019-04-16T07:22:12.591Z,99502.12
2019-04-16T07:24:39.930Z,99503.27
2019-04-16T07:27:07.713Z,99509.03
2019-04-16T07:29:46.126Z,99298.44
2019-04-16T07:32:29.477Z,99501.50
2019-04-16T07:35:16.147Z,99498.79
2019-04-16T07:38:04.919Z,99283.23
2019-04-16T07:40:33.226Z,99494.73
2019-04-16T07:43:02.737Z,99498.06
2019-04-16T07:45:37.451Z,99493.04
2019-04-16T07:48:06.983Z,99515.46
2019-04-16T07:50:53.069Z,99493.20
2019-04-16T07:53:38.042Z,99490.80
2019-04-16T07:56:19.284Z,99493.34
2019-04-16T07:58:46.035Z,99482.25
2019-04-16T08:01:16.275Z,99478.39
2019-04-16T08:03:42.056Z,99482.72
2019-04-16T08:06:10.696Z,99481.47
2019-04-16T08:08:37.846Z,99490.44
2019-04-16T08:11:05.686Z,99289.83
2019-04-16T08:13:34.590Z,99485.66
2019-04-16T08:16:01.668Z,99487.99
2019-04-16T08:18:28.738Z,99489.48
2019-04-16T08:21:02.000Z,99343.52
2019-04-16T08:23:32.516Z,99481.25
2019-04-16T08:26:04.166Z,99484.00
2019-04-16T08:28:30.043Z,99486.96
2019-04-16T08:30:57.316Z,99478.83
2019-04-16T08:33:28.201Z,99481.84
2019-04-16T08:35:53.229Z,99484.27
2019-04-16T08:38:20.391Z,99480.45
2019-04-16T08:40:47.467Z,99494.05
2019-04-16T08:43:14.443Z,99479.56
2019-04-16T08:45:41.807Z,99478.12
2019-04-16T08:48:09.802Z,99483.78
2019-04-16T08:50:37.424Z,99477.55
2019-04-16T08:53:04.244Z,99487.47
2019-04-16T08:55:31.190Z,99476.77
2019-04-16T08:57:58.131Z,99470.77
2019-04-16T09:00:25.286Z,99476.94
2019-04-16T09:02:52.229Z,99473.55
2019-04-16T09:05:19.352Z,99473.67
2019-04-16T09:07:50.730Z,99472.05
2019-04-16T09:10:23.076Z,99466.67
2019-04-16T09:12:50.981Z,99475.84
2019-04-16T09:15:17.078Z,99473.59
2019-04-16T09:17:46.526Z,99467.66
2019-04-16T09:20:15.561Z,99466.52
2019-04-16T09:22:49.395Z,99475.17
2019-04-16T09:25:30.329Z,99469.13
2019-04-16T09:28:00.772Z,99466.77
2019-04-16T09:30:46.718Z,99471.66
2019-04-16T09:33:30.395Z,99471.44
2019-04-16T09:36:17.950Z,99461.91
2019-04-16T09:38:46.761Z,99464.31
2019-04-16T09:41:18.581Z,99464.17
2019-04-16T09:43:57.106Z,99465.22
2019-04-16T09:46:48.867Z,99465.53
2019-04-16T09:48:54.297Z,99454.18
2019-04-16T09:51:21.505Z,99465.30
2019-04-16T09:53:49.114Z,99457.48
2019-04-16T09:56:29.172Z,99473.44
2019-04-16T09:58:57.526Z,99453.25
2019-04-16T10:01:26.686Z,99454.36
2019-04-16T10:03:54.693Z,99446.84
2019-04-16T10:06:21.611Z,99449.11
2019-04-16T10:08:48.564Z,99454.69
2019-04-16T10:11:18.575Z,99442.80
2019-04-16T10:13:45.785Z,99442.67
2019-04-16T10:16:14.346Z,99435.38
2019-04-16T10:18:41.379Z,99430.09
2019-04-16T10:21:08.761Z,99429.59
2019-04-16T10:23:43.702Z,99425.56
2019-04-16T10:26:11.008Z,99427.36
2019-04-16T10:28:39.692Z,99421.16
2019-04-16T10:31:06.671Z,99415.84
2019-04-16T10:33:33.517Z,99418.72
2019-04-16T10:36:01.158Z,99423.75
2019-04-16T10:38:47.376Z,99421.09
2019-04-16T10:41:16.243Z,99411.76
2019-04-16T10:43:57.180Z,99410.61
2019-04-16T10:46:28.894Z,99410.22
2019-04-16T10:49:06.409Z,99417.95
2019-04-16T10:51:39.179Z,99413.05
2019-04-16T10:54:20.043Z,99414.61
2019-04-16T10:57:03.774Z,99409.92
2019-04-16T10:59:35.637Z,99408.80
2019-04-16T11:02:21.106Z,99402.81
2019-04-16T11:04:49.781Z,99400.39
2019-04-16T11:07:21.530Z,99399.92
2019-04-16T11:09:48.985Z,99399.92
2019-04-16T11:12:19.653Z,99393.88
2019-04-16T11:14:45.923Z,99392.45
2019-04-16T11:17:12.838Z,99390.85
2019-04-16T11:19:40.229Z,99390.66
2019-04-16T11:22:07.199Z,99385.25
2019-04-16T11:24:34.190Z,99380.47
2019-04-16T11:27:01.204Z,99374.20
2019-04-16T11:29:28.560Z,99377.86
2019-04-16T11:31:55.950Z,99366.28
2019-04-16T11:34:22.902Z,99369.54
2019-04-16T11:36:49.882Z,99369.36
2019-04-16T11:39:17.208Z,99374.50
2019-04-16T11:41:51.282Z,99369.28
2019-04-16T11:44:19.409Z,99366.25
2019-04-16T11:46:47.547Z,99368.03
2019-04-16T11:49:14.399Z,99359.06
2019-04-16T11:51:41.846Z,99366.23
2019-04-16T11:54:11.805Z,99359.65
2019-04-16T11:56:38.508Z,99371.19
2019-04-16T11:59:06.004Z,99366.98
2019-04-16T12:01:53.776Z,99362.77
2019-04-16T12:04:25.766Z,99364.66
2019-04-16T12:07:00.440Z,99362.78
2019-04-16T12:09:32.079Z,99362.55
2019-04-16T12:12:17.688Z,99364.20
2019-04-16T12:14:55.708Z,99362.48
2019-04-16T12:17:27.525Z,99362.15
2019-04-16T12:20:05.297Z,99361.61
2019-04-16T12:22:46.131Z,99359.31
2019-04-16T12:25:32.781Z,99364.42
2019-04-16T12:28:06.363Z,99249.42
2019-04-16T12:30:35.371Z,99363.70
2019-04-16T12:33:13.989Z,99361.90
2019-04-16T12:35:45.160Z,99360.09
2019-04-16T12:38:17.858Z,99359.30
2019-04-16T12:40:54.883Z,99372.04
2019-04-16T12:43:24.056Z,99360.20
2019-04-16T12:45:53.869Z,99362.16
2019-04-16T12:48:34.514Z,99357.55
2019-04-16T12:51:09.635Z,99365.58
2019-04-16T12:53:55.288Z,99212.00
2019-04-16T12:56:30.288Z,99360.27
2019-04-16T12:59:02.194Z,99199.48
2019-04-16T13:01:33.259Z,99357.66
2019-04-16T13:04:13.704Z,99348.70
2019-04-16T13:06:42.464Z,99349.80
2019-04-16T13:09:20.258Z,99351.00
2019-04-16T13:11:49.327Z,99357.53
2019-04-16T13:14:30.830Z,99339.91
2019-04-16T13:17:04.439Z,99353.95
2019-04-16T13:19:49.629Z,99357.53
2019-04-16T13:22:18.209Z,99354.06
2019-04-16T13:24:53.289Z,99346.87
2019-04-16T13:27:24.902Z,99344.80
2019-04-16T13:29:52.161Z,99346.55
2019-04-16T13:32:19.190Z,99342.75
2019-04-16T13:34:46.125Z,99350.47
2019-04-16T13:37:13.830Z,99339.47
2019-04-16T13:39:59.303Z,99183.22
2019-04-16T13:42:23.488Z,99338.47
2019-04-16T13:44:55.257Z,99336.17
2019-04-16T13:47:22.590Z,99338.23
2019-04-16T13:49:51.386Z,99340.55
2019-04-16T13:52:20.599Z,99333.48
2019-04-16T13:54:49.051Z,99330.13
2019-04-16T13:57:20.251Z,99330.55
2019-04-16T14:00:02.969Z,99324.62
2019-04-16T14:02:27.425Z,99335.63
2019-04-16T14:04:54.171Z,99326.72
2019-04-16T14:07:25.208Z,99318.27
2019-04-16T14:09:50.553Z,99322.07
2019-04-16T14:12:23.036Z,99320.66
2019-04-16T14:14:49.472Z,99326.48
2019-04-16T14:17:18.603Z,99319.48
2019-04-16T14:19:45.632Z,99323.37
2019-04-16T14:22:13.260Z,99323.37
2019-04-16T14:24:40.387Z,99319.95
2019-04-16T14:27:07.728Z,99314.70
2019-04-16T14:29:35.838Z,99310.13
2019-04-16T14:32:03.879Z,99335.12
2019-04-16T14:34:39.220Z,99325.55
2019-04-16T14:37:06.027Z,99320.72
2019-04-16T14:39:40.542Z,99315.48
2019-04-16T14:42:07.983Z,99321.41
2019-04-16T14:44:39.691Z,99148.84
2019-04-16T14:47:06.631Z,99310.65
2019-04-16T14:49:34.044Z,99317.14
2019-04-16T14:52:02.123Z,99330.72
2019-04-16T14:54:31.637Z,99302.74
2019-04-16T14:57:02.576Z,99313.37
2019-04-16T14:59:49.854Z,99315.41
2019-04-16T15:02:34.827Z,99143.75
2019-04-16T15:05:04.104Z,99318.77
2019-04-16T15:07:32.924Z,99315.98
2019-04-16T15:10:02.911Z,99319.10
2019-04-16T15:12:35.672Z,99320.26
2019-04-16T15:15:04.595Z,99327.73
2019-04-16T15:17:51.774Z,99340.13
2019-04-16T15:20:23.179Z,99323.50
2019-04-16T15:22:54.908Z,99318.77
2019-04-16T15:25:30.294Z,99323.67
2019-04-16T15:28:16.972Z,99174.22
2019-04-16T15:31:00.808Z,99326.55
2019-04-16T15:33:39.058Z,99332.92
2019-04-16T15:36:08.890Z,99323.33
2019-04-16T15:38:53.719Z,99322.44
2019-04-16T15:41:27.910Z,99323.86
2019-04-16T15:44:13.327Z,99329.23
2019-04-16T15:46:50.569Z,99329.64
2019-04-16T15:49:22.886Z,99330.80
2019-04-16T15:52:02.067Z,99339.13
2019-04-16T15:54:34.124Z,99330.95
2019-04-16T15:57:19.163Z,99336.98
2019-04-16T15:59:54.427Z,99335.58
2019-04-16T16:02:23.083Z,99335.58
2019-04-16T16:04:54.964Z,99343.51
2019-04-16T16:07:24.276Z,99346.35
2019-04-16T16:09:53.365Z,99340.63
2019-04-16T16:12:25.592Z,99134.55
2019-04-16T16:14:53.267Z,99342.55
2019-04-16T16:17:22.628Z,99344.32
2019-04-16T16:19:48.854Z,99345.36
2019-04-16T16:22:15.903Z,99173.94
2019-04-16T16:24:43.084Z,99349.20
2019-04-16T16:27:10.024Z,99349.34
2019-04-16T16:29:37.208Z,99349.08
2019-04-16T16:32:04.112Z,99348.08
2019-04-16T16:34:31.521Z,99356.10
2019-04-16T16:36:58.425Z,99367.33
2019-04-16T16:39:25.636Z,99365.16
2019-04-16T16:41:52.627Z,99362.98
2019-04-16T16:44:19.640Z,99359.92
2019-04-16T16:46:56.457Z,99361.83
2019-04-16T16:49:17.665Z,99367.97
2019-04-16T16:51:52.215Z,99360.43
2019-04-16T16:54:23.622Z,99361.06
2019-04-16T16:57:03.541Z,99353.78
2019-04-16T16:59:31.704Z,99366.92
2019-04-16T17:02:10.051Z,99370.75
2019-04-16T17:04:37.251Z,99362.58
2019-04-16T17:07:05.192Z,99360.13
2019-04-16T17:09:32.861Z,99361.69
2019-04-16T17:11:59.687Z,99367.30
2019-04-16T17:14:26.883Z,99372.52
2019-04-16T17:16:53.812Z,99369.30
2019-04-16T17:19:20.609Z,99375.94
2019-04-16T17:21:47.550Z,99369.94
2019-04-16T17:24:14.629Z,99373.77
2019-04-16T17:26:42.670Z,99404.75
2019-04-16T17:29:09.646Z,99382.55
2019-04-16T17:31:36.762Z,99380.10
2019-04-16T17:34:03.720Z,99384.79
2019-04-16T17:36:31.047Z,99387.59
2019-04-16T17:38:58.305Z,99381.51
2019-04-16T17:41:29.776Z,99389.38
2019-04-16T17:44:01.906Z,99389.34
2019-04-16T17:46:32.485Z,99389.91
2019-04-16T17:49:05.667Z,99397.51
2019-04-16T17:51:34.730Z,99403.28
2019-04-16T17:54:21.333Z,99405.77
2019-04-16T17:56:59.039Z,99409.39
2019-04-16T17:59:29.565Z,99407.77
2019-04-16T18:02:01.089Z,99412.39
2019-04-16T18:04:46.372Z,99420.83
2019-04-16T18:07:21.144Z,99243.23
2019-04-16T18:09:53.477Z,99426.19
2019-04-16T18:12:25.047Z,99265.35
2019-04-16T18:15:09.526Z,99430.70
2019-04-16T18:17:47.399Z,99426.81
2019-04-16T18:20:11.604Z,99439.00
2019-04-16T18:22:41.884Z,99440.41
2019-04-16T18:25:21.362Z,99444.31
2019-04-16T18:27:53.062Z,99439.42
2019-04-16T18:30:36.786Z,99446.98
2019-04-16T18:33:22.925Z,99453.27
2019-04-16T18:35:51.785Z,99453.26
2019-04-16T18:38:39.236Z,99452.13
2019-04-16T18:41:14.170Z,99469.30
2019-04-16T18:43:59.411Z,99472.48
2019-04-16T18:46:30.977Z,99469.93
2019-04-16T18:49:02.189Z,99477.50
2019-04-16T18:51:32.862Z,99484.25
2019-04-16T18:53:58.244Z,99500.77
2019-04-16T18:56:25.110Z,99480.41
2019-04-16T18:58:52.528Z,99509.16
2019-04-16T19:01:24.640Z,99506.88
2019-04-16T19:03:50.523Z,99496.73
2019-04-16T19:06:17.294Z,99488.13
2019-04-16T19:08:44.180Z,99501.19
2019-04-16T19:11:11.061Z,99509.96
2019-04-16T19:13:38.302Z,99512.34
2019-04-16T19:16:05.231Z,99526.03
2019-04-16T19:18:32.236Z,99517.28
2019-04-16T19:20:59.500Z,99523.83
2019-04-16T19:23:26.656Z,99521.27
2019-04-16T19:25:55.443Z,99517.30
2019-04-16T19:28:24.639Z,99521.84
2019-04-16T19:30:51.947Z,99534.91
2019-04-16T19:33:19.493Z,99537.70
2019-04-16T19:35:50.988Z,99537.00
2019-04-16T19:38:16.017Z,99538.59
2019-04-16T19:40:43.295Z,99551.16
2019-04-16T19:43:10.650Z,99333.88
2019-04-16T19:45:40.655Z,99548.16
2019-04-16T19:48:06.932Z,99539.36
2019-04-16T19:50:36.505Z,99542.78
2019-04-16T19:53:02.553Z,99549.32
2019-04-16T19:55:29.740Z,99546.06
2019-04-16T19:57:57.964Z,99545.94
2019-04-16T20:00:25.130Z,99573.94
2019-04-16T20:02:53.093Z,99562.05
2019-04-16T20:05:20.723Z,99560.67
2019-04-16T20:07:47.700Z,99556.17
2019-04-16T20:10:15.290Z,99559.45
2019-04-16T20:12:42.153Z,99556.98
2019-04-16T20:15:09.782Z,99559.47
2019-04-16T20:17:36.755Z,99567.69
2019-04-16T20:20:05.590Z,99567.68
2019-04-16T20:22:32.536Z,99571.70
2019-04-16T20:24:59.990Z,99561.34
2019-04-16T20:27:27.009Z,99571.08
2019-04-16T20:29:54.047Z,99566.88
2019-04-16T20:32:22.006Z,99570.28
2019-04-16T20:34:49.116Z,99567.80
2019-04-16T20:37:16.655Z,99563.46
2019-04-16T20:39:43.946Z,99569.80
2019-04-16T20:42:10.908Z,99572.88
2019-04-16T20:44:37.761Z,99568.10
2019-04-16T20:47:07.991Z,99574.59
2019-04-16T20:49:33.724Z,99572.41
2019-04-16T20:52:02.177Z,99575.16
2019-04-16T20:54:29.598Z,99573.77
2019-04-16T20:56:56.700Z,99571.45
2019-04-16T20:59:24.229Z,99581.93
2019-04-16T21:01:51.094Z,99583.59
2019-04-16T21:04:18.094Z,99585.91
2019-04-16T21:06:44.934Z,99582.20
2019-04-16T21:09:12.242Z,99586.66
2019-04-16T21:11:41.031Z,99591.73
2019-04-16T21:14:07.924Z,99584.78
2019-04-16T21:16:36.158Z,99586.14
2019-04-16T21:19:03.290Z,99590.30
2019-04-16T21:21:30.262Z,99594.77
2019-04-16T21:23:57.137Z,99598.28
2019-04-16T21:26:24.275Z,99597.66
2019-04-16T21:28:52.865Z,99602.11
2019-04-16T21:31:21.815Z,99599.78
2019-04-16T21:33:52.324Z,99606.38
2019-04-16T21:36:30.033Z,99599.09
2019-04-16T21:39:07.707Z,99618.93
2019-04-16T21:41:34.865Z,99611.04
2019-04-16T21:44:01.691Z,99382.64
2019-04-16T21:46:29.238Z,99613.72
2019-04-16T21:48:59.831Z,99623.41
2019-04-16T21:51:25.562Z,99630.13
2019-04-16T21:53:52.359Z,99616.97
2019-04-16T21:56:19.130Z,99621.70
2019-04-16T21:58:46.627Z,99622.13
2019-04-16T22:01:26.132Z,99623.16
2019-04-16T22:03:54.754Z,99621.38
2019-04-16T22:06:21.644Z,99630.69
2019-04-16T22:08:48.466Z,99626.34
2019-04-16T22:11:15.622Z,99629.50
2019-04-16T22:13:42.630Z,99626.36
2019-04-16T22:16:09.420Z,99626.17
2019-04-16T22:18:37.692Z,99632.09
2019-04-16T22:21:09.818Z,99627.91
2019-04-16T22:23:34.793Z,99626.14
2019-04-16T22:26:03.981Z,99635.80
2019-04-16T22:28:30.993Z,99626.81
2019-04-16T22:30:58.735Z,99629.88
2019-04-16T22:33:25.844Z,99626.89
2019-04-16T22:35:53.658Z,99627.93
2019-04-16T22:38:20.840Z,99639.12
2019-04-16T22:41:08.576Z,99633.09
2019-04-16T22:43:47.016Z,99637.53
2019-04-16T22:46:22.615Z,99636.52
2019-04-16T22:48:57.149Z,99454.25
2019-04-16T22:51:24.890Z,99640.29
2019-04-16T22:53:52.634Z,99641.17
2019-04-16T22:56:22.193Z,99644.65
2019-04-16T22:58:50.160Z,99644.00
2019-04-16T23:01:18.490Z,99643.92
2019-04-16T23:03:45.513Z,99637.73
2019-04-16T23:06:12.594Z,99642.59
2019-04-16T23:08:40.572Z,99671.59
2019-04-16T23:11:09.062Z,99665.05
2019-04-16T23:13:36.482Z,99652.52
2019-04-16T23:16:03.758Z,99645.55
2019-04-16T23:18:30.784Z,99646.88
2019-04-16T23:20:58.481Z,99667.38
2019-04-16T23:23:25.390Z,99638.44
2019-04-16T23:25:52.286Z,99645.29
2019-04-16T23:28:19.803Z,99646.77
2019-04-16T23:30:51.289Z,99598.00
2019-04-16T23:33:17.684Z,99644.98
2019-04-16T23:35:45.460Z,99650.17
2019-04-16T23:38:12.345Z,99656.14
2019-04-16T23:40:40.864Z,99653.66
2019-04-16T23:43:12.695Z,99654.06
2019-04-16T23:55:59.541Z,99660.25
2019-04-16T23:58:31.312Z,99662.16
